首页
METAR-TAF:

METAR-TAF

机场 :

雅蒲島國際機場

雅蒲島, 密克罗尼西亚群岛

纬度: 09-29N, 经度: 138-05E, 海拔: 28米

当前天气观测

该预报发布于1小时和37分钟前的16:50 UTC
静风
温度 26°C
湿度 94%
气压 1011 hPa
能見度: 19.3公里
散云层高于1600英尺, 积雨云.
多云层高于13000英尺
阴天层高于30000英尺

METAR: PTYA 041650Z 00000KT 12SM SCT016CB BKN130 OVC300 26/25 A2984 RMK SHRAE14 CB ALQDS SLP107 T02580245

时间: 04:27 (18:27 UTC)

预报

该预报发布于1小时和0分钟前的17:27 UTC
预报有效从04日的 18点(UTC)到 05日的 18点(UTC)
风速10节,风向
能見度: 10公里
散云层高于1600英尺
散云层高于5000英尺
多云层高于12000英尺
附近有阵雨
短暂存在
从 04日的 18点(UTC)到 04日的 22点(UTC)
能見度: 8.0公里
多云层高于1600英尺
小阵雨

TAF: PTYA 041727Z 0418/0518 08010KT P6SM VCSH SCT016 SCT050 BKN120 TEMPO 0418/0422 5SM -SHRA BKN016

超过4000个机场的气象观测和天气预报(METAR&TAF报告)。

可查询的气象台以黄色和红色小点在地图上表示。

将鼠标移到小点上方,可查看气象台名称。

然后点击查看天气观测和预报。

如需切换地图:点击带黑十字的绿色按钮放大地图;点击带横线的绿色按钮缩小地图;或者点击绿色箭头查看邻近地区的地图。


METAR-TAF: